Time;durP1;ratioP1;P1;durP2;ratioP2;P2;SDS_P1;SDS_P2;PMS_P1;PMS_P2;Temp;Humidity;BMP_temperature;BMP_pressure;BME280_temperature;BME280_humidity;BME280_pressure;Samples;Min_cycle;Max_cycle;Signal;HPM_P1;HPM_P2
2022/07/16 00:19:15;;;;;;;;;;;;;;;18.59;45.58;100268.81;1059112;54;52165;-79
2022/07/16 00:19:19;;;;;;;;;;;;;;;18.55;45.57;100271.91;1085346;54;20058;-80
2022/07/16 00:20:21;;;;;;;;;;;;;;;18.54;45.68;100281.03;1085796;54;20457;-79
2022/07/16 00:21:23;;;;;;;;;;;;;;;18.56;45.94;100275.47;1085783;54;20421;-79
2022/07/16 00:22:27;;;;;;;;;;;;;;;18.58;45.64;100278.78;1085323;54;19958;-78
2022/07/16 00:23:29;;;;;;;;;;;;;;;18.51;46.00;100276.03;1086006;39;20329;-79
2022/07/16 00:24:33;;;;;;;;;;;;;;;18.46;46.71;100275.75;1085869;39;20451;-80
2022/07/16 00:25:34;;;;;;;;;;;;;;;18.43;46.27;100275.28;1085372;54;20010;-80
2022/07/16 00:26:38;;;;;;;;;;;;;;;18.44;46.29;100276.97;1084868;54;19942;-79
2022/07/16 00:27:41;;;;;;;;;;;;;;;18.39;46.44;100278.38;1085462;54;19950;-79
2022/07/16 00:28:45;;;;;;;;;;;;;;;18.34;47.06;100277.25;1084778;54;19953;-79
2022/07/16 00:29:56;;;;;;;;;;;;;;;18.35;46.90;100276.25;1085188;54;19953;-79
2022/07/16 00:30:57;;;;;;;;;;;;;;;18.33;46.85;100281.00;1085837;54;19969;-78
2022/07/16 00:32:01;;;;;;;;;;;;;;;18.32;47.16;100280.16;1086308;54;19946;-79
2022/07/16 00:33:05;;;;;;;;;;;;;;;18.33;46.98;100281.84;1086027;54;19947;-79
2022/07/16 00:34:09;;;;;;;;;;;;;;;18.29;47.57;100283.25;1087772;39;20346;-79
2022/07/16 00:35:11;;;;;;;;;;;;;;;18.26;47.61;100280.09;1085985;54;19954;-80
2022/07/16 00:36:21;;;;;;;;;;;;;;;18.28;47.29;100280.75;1085860;54;19969;-80
2022/07/16 00:37:22;;;;;;;;;;;;;;;18.29;46.84;100285.13;1085752;54;19947;-78
2022/07/16 00:38:26;;;;;;;;;;;;;;;18.28;46.92;100281.56;1086186;54;19973;-78
2022/07/16 00:39:27;;;;;;;;;;;;;;;18.21;47.44;100273.41;1086286;54;19942;-79
2022/07/16 00:40:38;;;;;;;;;;;;;;;18.20;47.46;100277.13;1085952;54;19954;-78
2022/07/16 00:41:41;;;;;;;;;;;;;;;18.18;47.05;100276.47;1086057;54;19946;-79
2022/07/16 00:42:45;;;;;;;;;;;;;;;18.20;47.04;100271.72;1086563;54;20023;-77
2022/07/16 00:43:48;;;;;;;;;;;;;;;18.06;47.90;100276.13;1086249;54;20448;-78
2022/07/16 00:44:52;;;;;;;;;;;;;;;18.08;47.22;100275.91;1086859;54;19977;-80
2022/07/16 00:45:53;;;;;;;;;;;;;;;18.07;47.26;100280.50;1087955;46;19957;-79
2022/07/16 00:47:00;;;;;;;;;;;;;;;18.08;47.44;100274.06;1085910;54;19939;-78
2022/07/16 00:48:01;;;;;;;;;;;;;;;18.09;47.51;100280.31;1085861;54;19946;-77
2022/07/16 00:49:10;;;;;;;;;;;;;;;18.08;47.33;100274.06;1086052;54;19946;-78
2022/07/16 00:50:12;;;;;;;;;;;;;;;18.09;47.34;100274.91;1085637;54;19947;-78
2022/07/16 00:51:17;;;;;;;;;;;;;;;18.08;47.51;100278.63;1085843;54;20416;-79
2022/07/16 00:52:19;;;;;;;;;;;;;;;18.09;47.31;100280.31;1085733;54;19969;-78
2022/07/16 00:53:23;;;;;;;;;;;;;;;18.07;47.32;100279.66;1085879;54;19942;-78
2022/07/16 00:54:24;;;;;;;;;;;;;;;18.05;47.34;100279.84;1085585;54;19947;-80
2022/07/16 00:55:28;;;;;;;;;;;;;;;18.04;47.29;100282.75;1086408;54;19939;-80
2022/07/16 00:56:35;;;;;;;;;;;;;;;18.01;47.54;100283.94;1087042;54;19974;-80
2022/07/16 00:57:39;;;;;;;;;;;;;;;18.01;47.09;100283.94;1087288;54;19950;-80
2022/07/16 00:58:43;;;;;;;;;;;;;;;17.99;47.49;100282.47;1086978;54;20019;-80
2022/07/16 00:59:46;;;;;;;;;;;;;;;17.97;47.50;100284.50;1086997;54;19947;-79
2022/07/16 01:00:55;;;;;;;;;;;;;;;17.92;47.36;100283.19;1086719;54;19954;-81
2022/07/16 01:01:59;;;;;;;;;;;;;;;17.88;47.55;100289.16;1087271;54;19939;-80
2022/07/16 01:03:11;;;;;;;;;;;;;;;17.82;48.03;100288.03;1087033;54;19939;-80
2022/07/16 01:04:18;;;;;;;;;;;;;;;17.77;48.22;100288.59;1088816;31;20414;-81
2022/07/16 01:05:20;;;;;;;;;;;;;;;17.75;48.07;100290.63;1087090;54;19966;-79
2022/07/16 01:06:24;;;;;;;;;;;;;;;17.73;48.18;100294.56;1087137;54;19938;-81
2022/07/16 01:07:26;;;;;;;;;;;;;;;17.72;48.18;100290.19;1087462;54;19946;-80
2022/07/16 01:08:30;;;;;;;;;;;;;;;17.62;48.52;100285.88;1087657;54;19958;-80
2022/07/16 01:09:32;;;;;;;;;;;;;;;17.64;48.42;100293.78;1087284;54;19948;-80
2022/07/16 01:10:36;;;;;;;;;;;;;;;17.63;48.44;100292.13;1087662;54;19979;-80
2022/07/16 01:11:37;;;;;;;;;;;;;;;17.59;48.64;100294.34;1088669;39;20356;-79
2022/07/16 01:12:48;;;;;;;;;;;;;;;17.56;48.74;100292.03;1086997;54;19939;-80
2022/07/16 01:13:50;;;;;;;;;;;;;;;17.52;49.10;100298.81;1087441;54;20907;-77
2022/07/16 01:14:54;;;;;;;;;;;;;;;17.42;49.57;100292.84;1090185;39;20557;-79
2022/07/16 01:15:55;;;;;;;;;;;;;;;17.42;49.07;100285.59;1093013;39;20584;-79
2022/07/16 01:16:59;;;;;;;;;;;;;;;17.42;49.27;100287.44;1088365;54;19958;-79
2022/07/16 01:18:00;;;;;;;;;;;;;;;17.31;49.86;100292.25;1088219;46;19958;-79
2022/07/16 01:19:04;;;;;;;;;;;;;;;17.26;50.21;100296.53;1088343;54;19954;-79
2022/07/16 01:23:13;;;;;;;;;;;;;;;17.24;49.78;100304.00;1088838;54;19923;-83
2022/07/16 01:24:16;;;;;;;;;;;;;;;17.26;49.75;100291.13;1088760;54;19926;-83
2022/07/16 01:25:35;;;;;;;;;;;;;;;17.27;49.90;100299.06;1088780;54;19959;-83
2022/07/16 01:26:37;;;;;;;;;;;;;;;17.29;49.61;100302.41;1089535;46;19958;-78
2022/07/16 01:27:41;;;;;;;;;;;;;;;17.28;49.77;100295.34;1089045;46;19979;-78
2022/07/16 01:28:42;;;;;;;;;;;;;;;17.30;49.62;100298.69;1088864;47;19987;-79
2022/07/16 01:29:46;;;;;;;;;;;;;;;17.30;49.85;100301.38;1088650;47;19946;-78
2022/07/16 01:30:47;;;;;;;;;;;;;;;17.30;49.99;100297.84;1088782;46;19942;-78
2022/07/16 01:31:57;;;;;;;;;;;;;;;17.31;49.56;100296.84;1092351;39;20455;-79
2022/07/16 01:32:58;;;;;;;;;;;;;;;17.31;49.59;100294.97;1088347;54;19927;-78
2022/07/16 01:35:18;;;;;;;;;;;;;;;17.34;49.68;100298.31;1087761;54;19982;-81
2022/07/16 01:36:22;;;;;;;;;;;;;;;17.32;49.38;100298.53;1087326;54;19943;-79
2022/07/16 01:37:25;;;;;;;;;;;;;;;17.30;50.05;100297.84;1088220;54;19923;-81
2022/07/16 01:38:29;;;;;;;;;;;;;;;17.19;50.70;100301.84;1088231;54;19939;-81
2022/07/16 01:39:37;;;;;;;;;;;;;;;17.19;50.40;100307.25;1088284;54;19927;-82
2022/07/16 01:40:38;;;;;;;;;;;;;;;17.21;50.36;100307.06;1088472;54;19923;-79
2022/07/16 01:41:55;;;;;;;;;;;;;;;17.20;50.29;100295.41;1088595;54;19994;-80
2022/07/16 01:42:56;;;;;;;;;;;;;;;17.16;50.39;100302.19;1088296;54;19935;-80
2022/07/16 01:44:00;;;;;;;;;;;;;;;17.17;50.14;100309.28;1088096;54;19935;-78
2022/07/16 01:45:02;;;;;;;;;;;;;;;17.17;50.27;100309.28;1088324;54;19942;-78
2022/07/16 01:46:06;;;;;;;;;;;;;;;17.18;50.43;100305.56;1088133;54;20602;-79
2022/07/16 01:47:07;;;;;;;;;;;;;;;17.18;50.11;100305.56;1088218;54;19954;-79
2022/07/16 01:48:11;;;;;;;;;;;;;;;17.17;50.34;100309.28;1088145;54;19944;-78
2022/07/16 01:49:12;;;;;;;;;;;;;;;17.15;50.13;100300.53;1091036;39;20566;-77
2022/07/16 01:50:16;;;;;;;;;;;;;;;17.15;50.19;100301.34;1088184;54;19950;-77
2022/07/16 01:51:17;;;;;;;;;;;;;;;17.15;49.95;100295.13;1088101;54;20571;-77
2022/07/16 01:52:21;;;;;;;;;;;;;;;17.12;50.00;100307.13;1088139;47;20718;-77
2022/07/16 01:53:23;;;;;;;;;;;;;;;17.10;50.36;100302.91;1088287;54;19954;-77
2022/07/16 01:54:27;;;;;;;;;;;;;;;17.05;50.55;100308.03;1088072;54;19942;-77
2022/07/16 01:55:31;;;;;;;;;;;;;;;16.99;50.52;100302.34;1088257;47;19934;-77
2022/07/16 01:56:35;;;;;;;;;;;;;;;17.00;50.13;100306.69;1088122;54;19939;-77
2022/07/16 01:57:36;;;;;;;;;;;;;;;16.98;50.37;100300.66;1088064;54;19943;-77
2022/07/16 01:58:40;;;;;;;;;;;;;;;16.99;50.07;100296.09;1088187;54;19986;-77
2022/07/16 01:59:42;;;;;;;;;;;;;;;16.99;49.93;100298.78;1088168;54;19950;-77
2022/07/16 02:00:47;;;;;;;;;;;;;;;16.98;49.72;100302.50;1088144;54;19962;-77
2022/07/16 02:01:48;;;;;;;;;;;;;;;16.94;50.31;100296.63;1088065;54;20575;-77
2022/07/16 02:04:25;;;;;;;;;;;;;;;16.88;50.27;100291.94;1087884;54;20694;-78
2022/07/16 02:05:29;;;;;;;;;;;;;;;16.87;50.47;100295.66;1088180;54;19967;-79
2022/07/16 02:06:30;;;;;;;;;;;;;;;16.90;49.96;100302.53;1088188;54;19950;-78
2022/07/16 02:07:34;;;;;;;;;;;;;;;16.91;50.32;100299.66;1088075;54;19943;-77
2022/07/16 02:08:37;;;;;;;;;;;;;;;16.95;49.97;100300.19;1088154;54;19962;-78
2022/07/16 02:09:41;;;;;;;;;;;;;;;16.90;50.30;100294.44;1088096;54;19954;-78
2022/07/16 02:10:44;;;;;;;;;;;;;;;16.84;50.48;100298.69;1088163;54;19978;-77
2022/07/16 02:11:48;;;;;;;;;;;;;;;16.79;50.57;100298.41;1088097;54;19950;-77
2022/07/16 02:12:49;;;;;;;;;;;;;;;16.86;50.01;100291.25;1088613;39;20435;-78
2022/07/16 02:13:53;;;;;;;;;;;;;;;16.87;50.03;100294.78;1087646;54;19947;-77
2022/07/16 02:14:54;;;;;;;;;;;;;;;16.89;50.22;100292.75;1087632;54;19966;-77
2022/07/16 02:15:58;;;;;;;;;;;;;;;16.85;50.41;100300.38;1087210;54;19950;-78
2022/07/16 02:17:01;;;;;;;;;;;;;;;16.90;49.87;100297.13;1086633;54;19939;-78
2022/07/16 02:18:05;;;;;;;;;;;;;;;16.89;50.07;100296.31;1086547;54;19950;-79
2022/07/16 02:19:06;;;;;;;;;;;;;;;16.91;49.86;100294.25;1086318;54;20002;-78
2022/07/16 02:20:12;;;;;;;;;;;;;;;16.95;49.71;100297.47;1086759;54;20002;-79
2022/07/16 02:21:13;;;;;;;;;;;;;;;16.97;49.39;100293.56;1086511;54;19946;-79
2022/07/16 02:22:37;;;;;;;;;;;;;;;16.98;49.39;100295.25;1087182;54;19939;-81
2022/07/16 02:23:38;;;;;;;;;;;;;;;16.79;50.46;100295.72;1087184;54;19943;-80
2022/07/16 02:24:49;;;;;;;;;;;;;;;16.78;50.37;100302.13;1087179;54;19939;-78
2022/07/16 02:25:53;;;;;;;;;;;;;;;16.75;50.30;100297.06;1087434;39;20385;-80
2022/07/16 02:27:14;;;;;;;;;;;;;;;16.73;50.40;100291.00;1086729;54;19943;-78
2022/07/16 02:28:15;;;;;;;;;;;;;;;16.68;51.02;100295.09;1086797;54;19939;-78
2022/07/16 02:29:34;;;;;;;;;;;;;;;16.60;51.22;100294.28;1086807;54;19946;-78
2022/07/16 02:30:36;;;;;;;;;;;;;;;16.57;51.10;100298.19;1087105;54;19959;-76
2022/07/16 02:33:11;;;;;;;;;;;;;;;16.51;51.49;100296.22;1088640;54;19962;-80
2022/07/16 02:34:29;;;;;;;;;;;;;;;16.46;51.62;100295.91;1088552;54;19946;-80
2022/07/16 02:35:33;;;;;;;;;;;;;;;16.41;51.90;100295.59;1088785;46;19941;-79
2022/07/16 02:38:17;;;;;;;;;;;;;;;16.38;51.64;100292.22;1088732;54;19938;-80
2022/07/16 02:39:18;;;;;;;;;;;;;;;16.41;51.75;100293.72;1088908;54;19954;-80
2022/07/16 02:43:35;;;;;;;;;;;;;;;16.49;51.57;100290.16;1088755;54;19925;-81
2022/07/16 02:46:32;;;;;;;;;;;;;;;16.32;52.51;100284.00;1088630;54;19942;-78
2022/07/16 02:47:36;;;;;;;;;;;;;;;16.21;53.16;100288.78;1088795;54;19939;-79
2022/07/16 02:50:04;;;;;;;;;;;;;;;16.08;53.72;100290.34;1088439;54;19995;-80
2022/07/16 02:51:25;;;;;;;;;;;;;;;16.01;53.59;100285.66;1088259;54;19923;-77
2022/07/16 02:52:26;;;;;;;;;;;;;;;15.95;53.99;100290.91;1087549;54;19950;-79
2022/07/16 02:55:01;;;;;;;;;;;;;;;15.90;53.77;100291.44;1088191;54;19919;-81
2022/07/16 02:59:07;;;;;;;;;;;;;;;15.86;54.13;100290.94;1088473;54;19934;-81
2022/07/16 03:00:28;;;;;;;;;;;;;;;15.89;54.14;100287.06;1088273;54;19947;-80
2022/07/16 03:01:29;;;;;;;;;;;;;;;15.90;53.93;100291.44;1091060;31;20447;-80
2022/07/16 03:02:35;;;;;;;;;;;;;;;15.90;53.97;100297.69;1087235;39;20332;-78
2022/07/16 03:03:39;;;;;;;;;;;;;;;15.93;53.91;100299.19;1087790;31;20416;-79
2022/07/16 03:04:49;;;;;;;;;;;;;;;15.94;53.94;100294.63;1087035;54;20030;-79
2022/07/16 03:05:50;;;;;;;;;;;;;;;15.95;53.79;100290.91;1087710;54;19935;-79
2022/07/16 03:06:54;;;;;;;;;;;;;;;15.94;53.80;100292.78;1088897;39;20328;-79
2022/07/16 03:07:55;;;;;;;;;;;;;;;15.97;53.87;100294.28;1086369;54;19935;-79
2022/07/16 03:09:13;;;;;;;;;;;;;;;15.97;53.69;100295.09;1087261;54;19953;-79
2022/07/16 03:10:16;;;;;;;;;;;;;;;15.97;54.02;100300.50;1084974;54;19990;-78
2022/07/16 03:11:22;;;;;;;;;;;;;;;15.93;54.24;100301.03;1084817;54;19939;-78
2022/07/16 03:12:33;;;;;;;;;;;;;;;15.94;53.98;100298.16;1085225;54;20032;-79
2022/07/16 03:13:38;;;;;;;;;;;;;;;15.93;54.06;100296.50;1085082;54;19990;-80
2022/07/16 03:14:39;;;;;;;;;;;;;;;15.95;53.87;100299.84;1086932;54;19945;-79
2022/07/16 03:15:44;;;;;;;;;;;;;;;15.96;54.14;100290.75;1087970;54;19979;-80
2022/07/16 03:17:00;;;;;;;;;;;;;;;15.97;53.88;100296.97;1088217;54;19942;-80
2022/07/16 03:18:04;;;;;;;;;;;;;;;15.96;54.02;100298.84;1088306;54;20491;-80
2022/07/16 03:19:22;;;;;;;;;;;;;;;16.00;53.93;100296.63;1087545;54;19947;-80
2022/07/16 03:20:23;;;;;;;;;;;;;;;16.02;54.10;100297.28;1087745;54;19969;-80
2022/07/16 03:21:35;;;;;;;;;;;;;;;15.97;54.19;100307.75;1088107;54;19934;-80
2022/07/16 03:22:36;;;;;;;;;;;;;;;15.97;54.13;100302.38;1087913;54;19942;-79
2022/07/16 03:23:40;;;;;;;;;;;;;;;15.96;54.57;100301.53;1087631;54;19947;-79
2022/07/16 03:24:41;;;;;;;;;;;;;;;15.95;54.48;100317.88;1086542;54;19950;-79
2022/07/16 03:25:52;;;;;;;;;;;;;;;15.89;54.98;100304.09;1087090;54;19973;-80
2022/07/16 03:26:53;;;;;;;;;;;;;;;15.89;54.81;100305.91;1086579;54;19958;-78
2022/07/16 03:28:04;;;;;;;;;;;;;;;15.85;54.73;100307.31;1086566;54;19954;-79
2022/07/16 03:29:05;;;;;;;;;;;;;;;15.81;55.17;100309.47;1085732;54;19947;-78
2022/07/16 03:30:09;;;;;;;;;;;;;;;15.72;55.82;100311.34;1086482;54;19946;-74
2022/07/16 03:31:10;;;;;;;;;;;;;;;15.64;55.97;100308.66;1084448;54;19946;-77
2022/07/16 03:32:14;;;;;;;;;;;;;;;15.65;55.68;100314.88;1084004;54;19946;-77
2022/07/16 03:33:15;;;;;;;;;;;;;;;15.64;55.82;100311.34;1084167;54;19970;-77
2022/07/16 03:34:22;;;;;;;;;;;;;;;15.63;55.86;100317.75;1084457;54;19966;-77
2022/07/16 03:35:23;;;;;;;;;;;;;;;15.66;55.48;100317.41;1083755;54;19947;-77
2022/07/16 03:36:26;;;;;;;;;;;;;;;15.64;55.82;100321.28;1084108;54;19947;-78
2022/07/16 03:37:28;;;;;;;;;;;;;;;15.59;56.16;100321.78;1084290;54;19973;-76
2022/07/16 03:39:48;;;;;;;;;;;;;;;15.56;56.18;100322.16;1086054;54;19957;-76
2022/07/16 03:40:49;;;;;;;;;;;;;;;15.55;56.34;100320.47;1085757;46;19951;-77
2022/07/16 03:41:53;;;;;;;;;;;;;;;15.58;55.86;100325.53;1086068;54;19946;-76
2022/07/16 03:42:54;;;;;;;;;;;;;;;15.61;55.73;100314.38;1086584;46;19950;-77
2022/07/16 03:43:58;;;;;;;;;;;;;;;15.61;55.61;100322.47;1085813;54;20027;-77
2022/07/16 03:44:59;;;;;;;;;;;;;;;15.56;55.63;100314.06;1085630;54;19982;-77
2022/07/16 03:46:03;;;;;;;;;;;;;;;15.59;55.72;100322.66;1085833;54;19953;-77
2022/07/16 03:47:04;;;;;;;;;;;;;;;15.54;56.28;100321.47;1085712;54;19947;-77
2022/07/16 03:48:08;;;;;;;;;;;;;;;15.52;56.01;100324.34;1086081;54;19953;-78
2022/07/16 03:49:09;;;;;;;;;;;;;;;15.46;55.99;100329.56;1085984;54;19946;-77
2022/07/16 03:50:16;;;;;;;;;;;;;;;15.49;55.99;100315.78;1085885;54;19950;-76
2022/07/16 03:51:17;;;;;;;;;;;;;;;15.45;56.12;100331.41;1086120;54;19998;-77
2022/07/16 03:52:21;;;;;;;;;;;;;;;15.48;55.70;100319.47;1084760;54;19946;-76
2022/07/16 03:53:22;;;;;;;;;;;;;;;15.50;55.86;100322.81;1084254;54;19954;-77
2022/07/16 03:54:26;;;;;;;;;;;;;;;15.51;55.65;100328.06;1084493;47;20566;-77
2022/07/16 03:55:52;;;;;;;;;;;;;;;15.51;56.89;100327.19;1084437;54;19946;-77
2022/07/16 03:56:55;;;;;;;;;;;;;;;15.28;57.49;100335.97;1084118;54;19969;-76
2022/07/16 03:58:20;;;;;;;;;;;;;;;15.09;58.53;100338.00;1084406;54;19954;-76
2022/07/16 03:59:24;;;;;;;;;;;;;;;14.89;58.66;100337.44;1084029;54;19957;-75
2022/07/16 04:00:25;;;;;;;;;;;;;;;14.82;58.86;100337.28;1084217;54;19957;-76
2022/07/16 04:01:29;;;;;;;;;;;;;;;14.75;58.93;100336.25;1084087;54;20047;-76
2022/07/16 04:02:31;;;;;;;;;;;;;;;14.66;58.96;100348.88;1083568;54;19951;-77
2022/07/16 04:03:35;;;;;;;;;;;;;;;14.60;59.01;100346.78;1084579;39;20327;-76
2022/07/16 04:04:36;;;;;;;;;;;;;;;14.53;59.24;100340.38;1084434;46;19939;-76
2022/07/16 04:05:42;;;;;;;;;;;;;;;14.57;59.40;100344.44;1083692;54;20555;-76
2022/07/16 04:06:44;;;;;;;;;;;;;;;14.49;59.41;100339.84;1083819;54;19947;-76
2022/07/16 04:07:47;;;;;;;;;;;;;;;14.44;59.57;100344.91;1083762;54;19947;-76
2022/07/16 04:08:49;;;;;;;;;;;;;;;14.35;59.62;100345.88;1083844;54;19970;-77
2022/07/16 04:09:52;;;;;;;;;;;;;;;14.31;59.65;100353.41;1084497;54;19947;-76
2022/07/16 04:10:53;;;;;;;;;;;;;;;14.33;60.04;100347.88;1084165;54;19973;-77
2022/07/16 04:11:58;;;;;;;;;;;;;;;14.29;60.04;100352.75;1084659;54;19953;-77
2022/07/16 04:12:59;;;;;;;;;;;;;;;14.28;59.88;100352.88;1085072;54;19939;-76
2022/07/16 04:14:03;;;;;;;;;;;;;;;14.30;59.77;100346.38;1084858;54;19947;-77
2022/07/16 04:15:04;;;;;;;;;;;;;;;14.31;59.83;100356.09;1084673;54;19947;-77
2022/07/16 04:16:08;;;;;;;;;;;;;;;14.35;59.60;100353.94;1084222;54;19977;-77
2022/07/16 04:17:09;;;;;;;;;;;;;;;14.40;59.57;100348.06;1084004;54;19993;-77
2022/07/16 04:18:13;;;;;;;;;;;;;;;14.38;59.74;100350.06;1083745;54;19947;-77
2022/07/16 04:19:17;;;;;;;;;;;;;;;14.40;59.55;100354.28;1083967;54;19947;-76
2022/07/16 04:20:18;;;;;;;;;;;;;;;14.41;59.46;100349.72;1084080;54;19946;-76
2022/07/16 04:21:25;;;;;;;;;;;;;;;14.39;59.62;100351.78;1084144;46;19946;-76
2022/07/16 04:22:26;;;;;;;;;;;;;;;14.37;59.84;100354.59;1083796;54;19947;-77
2022/07/16 04:23:29;;;;;;;;;;;;;;;14.37;59.94;100354.59;1084105;54;19950;-77
2022/07/16 04:24:30;;;;;;;;;;;;;;;14.44;59.75;100360.19;1083948;54;19972;-76
2022/07/16 04:25:34;;;;;;;;;;;;;;;14.46;59.81;100358.19;1083792;54;19973;-75
2022/07/16 04:26:35;;;;;;;;;;;;;;;14.45;60.03;100360.00;1083590;54;19946;-77
2022/07/16 04:27:40;;;;;;;;;;;;;;;14.47;59.82;100355.31;1083688;54;19946;-76
2022/07/16 04:28:41;;;;;;;;;;;;;;;14.49;59.76;100357.84;1083997;54;19958;-77
2022/07/16 04:29:44;;;;;;;;;;;;;;;14.52;59.79;100354.81;1084237;54;19958;-77
2022/07/16 04:30:46;;;;;;;;;;;;;;;14.65;59.37;100363.28;1084316;46;19939;-76
2022/07/16 04:31:49;;;;;;;;;;;;;;;14.76;58.98;100361.31;1083563;54;19958;-77
2022/07/16 04:32:50;;;;;;;;;;;;;;;14.76;58.96;100364.84;1083842;54;19946;-77
2022/07/16 04:33:54;;;;;;;;;;;;;;;14.91;58.54;100358.84;1084009;54;20066;-77
2022/07/16 04:34:55;;;;;;;;;;;;;;;14.97;58.67;100361.69;1084074;54;19943;-77
2022/07/16 04:35:59;;;;;;;;;;;;;;;14.97;59.29;100360.84;1083837;54;19953;-77
2022/07/16 04:37:03;;;;;;;;;;;;;;;14.99;58.67;100356.16;1083738;54;19993;-77
2022/07/16 04:38:07;;;;;;;;;;;;;;;15.06;58.52;100359.84;1083443;54;20045;-76
2022/07/16 04:39:08;;;;;;;;;;;;;;;15.11;58.43;100357.50;1083553;46;19969;-77
2022/07/16 04:40:13;;;;;;;;;;;;;;;15.18;57.76;100356.84;1083847;54;19969;-77
2022/07/16 04:41:14;;;;;;;;;;;;;;;15.20;58.12;100355.66;1083948;47;19939;-77
2022/07/16 04:42:18;;;;;;;;;;;;;;;15.27;57.96;100361.22;1083747;54;20035;-77
2022/07/16 04:43:19;;;;;;;;;;;;;;;15.35;57.42;100357.69;1083600;54;19954;-76
2022/07/16 04:44:23;;;;;;;;;;;;;;;15.36;57.95;100359.34;1083356;54;20042;-77
2022/07/16 04:45:24;;;;;;;;;;;;;;;15.40;57.54;100356.16;1083372;54;19946;-77
2022/07/16 04:46:28;;;;;;;;;;;;;;;15.43;57.36;100368.47;1083749;54;19946;-78
2022/07/16 04:47:29;;;;;;;;;;;;;;;15.43;57.51;100363.91;1084540;39;20337;-77
2022/07/16 04:48:33;;;;;;;;;;;;;;;15.42;57.46;100356.84;1083676;54;19939;-78
2022/07/16 04:49:35;;;;;;;;;;;;;;;15.38;57.91;100357.34;1083743;54;19970;-78
2022/07/16 04:50:38;;;;;;;;;;;;;;;15.38;57.72;100360.91;1083791;39;20357;-77
2022/07/16 04:51:40;;;;;;;;;;;;;;;15.36;58.07;100365.59;1083079;54;19950;-77
2022/07/16 04:52:46;;;;;;;;;;;;;;;15.43;57.43;100366.59;1083245;54;19973;-77
2022/07/16 04:53:47;;;;;;;;;;;;;;;15.49;57.50;100359.69;1083327;54;19946;-77
2022/07/16 04:54:51;;;;;;;;;;;;;;;15.48;57.30;100371.50;1083296;54;20045;-77
2022/07/16 04:55:52;;;;;;;;;;;;;;;15.49;57.39;100372.34;1083334;54;20425;-79
2022/07/16 04:56:56;;;;;;;;;;;;;;;15.50;57.28;100371.31;1083724;54;20176;-78
2022/07/16 04:57:57;;;;;;;;;;;;;;;15.55;56.98;100368.97;1084468;39;20349;-78
2022/07/16 04:59:01;;;;;;;;;;;;;;;15.56;56.84;100363.41;1083532;54;19947;-78
2022/07/16 05:00:03;;;;;;;;;;;;;;;15.62;56.73;100355.66;1083354;54;19939;-77
2022/07/16 05:01:07;;;;;;;;;;;;;;;15.64;57.10;100367.94;1083934;54;19946;-78
2022/07/16 05:03:35;;;;;;;;;;;;;;;15.63;56.97;100360.88;1083233;54;20030;-78
2022/07/16 05:04:37;;;;;;;;;;;;;;;15.67;57.00;100364.06;1084047;54;19938;-77
2022/07/16 05:05:41;;;;;;;;;;;;;;;15.68;56.98;100361.19;1083968;54;20537;-79
2022/07/16 05:06:42;;;;;;;;;;;;;;;15.67;57.04;100358.66;1083782;47;19969;-78
2022/07/16 05:07:48;;;;;;;;;;;;;;;15.69;56.92;100362.03;1083998;54;19954;-78
2022/07/16 05:08:52;;;;;;;;;;;;;;;15.65;57.28;100363.38;1084022;54;19999;-77
2022/07/16 05:09:53;;;;;;;;;;;;;;;15.63;57.28;100358.19;1084400;39;20675;-77
2022/07/16 05:10:57;;;;;;;;;;;;;;;15.66;57.06;100360.53;1085110;39;20344;-79
2022/07/16 05:11:58;;;;;;;;;;;;;;;15.67;57.30;100355.97;1083381;54;19954;-78
2022/07/16 05:13:02;;;;;;;;;;;;;;;15.68;57.08;100363.88;1083360;47;19946;-77
2022/07/16 05:14:03;;;;;;;;;;;;;;;15.61;57.27;100357.50;1083188;54;20406;-77
2022/07/16 05:15:07;;;;;;;;;;;;;;;15.66;57.43;100368.63;1083310;54;19946;-77
2022/07/16 05:16:08;;;;;;;;;;;;;;;15.73;57.04;100361.53;1083889;39;20352;-77
2022/07/16 05:17:12;;;;;;;;;;;;;;;15.75;57.04;100359.50;1083644;54;19951;-78
2022/07/16 05:18:13;;;;;;;;;;;;;;;15.79;56.53;100368.09;1083156;54;19947;-78
2022/07/16 05:19:17;;;;;;;;;;;;;;;15.82;56.43;100369.59;1082649;54;19950;-78
2022/07/16 05:20:18;;;;;;;;;;;;;;;15.87;56.66;100357.31;1083452;54;19947;-77
2022/07/16 05:21:22;;;;;;;;;;;;;;;15.96;56.45;100368.09;1083519;54;19970;-77
2022/07/16 05:22:23;;;;;;;;;;;;;;;15.95;56.40;100364.56;1083182;54;19946;-77
2022/07/16 05:23:30;;;;;;;;;;;;;;;15.89;56.62;100366.09;1083412;54;20468;-78
2022/07/16 05:24:31;;;;;;;;;;;;;;;15.90;56.30;100369.59;1083891;39;20349;-77
2022/07/16 05:25:35;;;;;;;;;;;;;;;15.91;56.43;100371.28;1083379;54;19994;-78
2022/07/16 05:26:36;;;;;;;;;;;;;;;15.96;56.28;100363.56;1083903;39;20333;-78
2022/07/16 05:27:40;;;;;;;;;;;;;;;16.01;56.13;100379.22;1083348;54;19969;-78
2022/07/16 05:28:42;;;;;;;;;;;;;;;16.03;55.95;100378.00;1083612;54;19947;-77
2022/07/16 05:29:46;;;;;;;;;;;;;;;15.98;56.39;100369.59;1083373;54;20034;-78
2022/07/16 05:30:49;;;;;;;;;;;;;;;16.00;56.18;100364.88;1083877;54;19946;-78
2022/07/16 05:31:51;;;;;;;;;;;;;;;15.87;56.65;100372.66;1083688;54;19954;-78
2022/07/16 05:32:54;;;;;;;;;;;;;;;15.87;56.61;100378.06;1083699;54;19957;-77
2022/07/16 05:33:56;;;;;;;;;;;;;;;15.80;57.08;100371.63;1083489;54;19974;-77
2022/07/16 05:35:00;;;;;;;;;;;;;;;15.80;57.14;100371.63;1083142;54;19999;-77
2022/07/16 05:36:03;;;;;;;;;;;;;;;15.75;57.01;100370.28;1083289;54;19953;-77
2022/07/16 05:37:05;;;;;;;;;;;;;;;15.75;57.10;100372.13;1083313;54;19953;-78
2022/07/16 05:38:10;;;;;;;;;;;;;;;15.82;56.62;100377.69;1083523;54;19946;-78
2022/07/16 05:39:14;;;;;;;;;;;;;;;15.87;56.46;100375.38;1085378;54;19952;-78
2022/07/16 05:40:18;;;;;;;;;;;;;;;15.83;56.43;100373.97;1085786;46;19958;-77
2022/07/16 05:41:19;;;;;;;;;;;;;;;15.86;56.62;100374.50;1084533;54;19954;-78
2022/07/16 05:42:23;;;;;;;;;;;;;;;15.89;56.17;100370.63;1083668;54;19973;-77
2022/07/16 05:43:24;;;;;;;;;;;;;;;15.83;56.40;100371.28;1083133;54;19970;-77
2022/07/16 05:44:28;;;;;;;;;;;;;;;15.97;55.94;100373.28;1083290;54;20481;-77
2022/07/16 05:45:32;;;;;;;;;;;;;;;16.06;55.84;100374.13;1083285;54;19946;-78
2022/07/16 05:46:33;;;;;;;;;;;;;;;16.16;55.32;100372.06;1083736;54;19947;-78
2022/07/16 05:47:37;;;;;;;;;;;;;;;16.23;55.48;100372.22;1084092;54;19973;-78
2022/07/16 05:48:38;;;;;;;;;;;;;;;16.27;55.46;100373.53;1083731;54;19970;-78
2022/07/16 05:49:42;;;;;;;;;;;;;;;16.29;55.21;100376.09;1083722;54;19953;-78
2022/07/16 05:50:43;;;;;;;;;;;;;;;16.33;54.99;100375.56;1083675;54;19947;-77
2022/07/16 05:51:47;;;;;;;;;;;;;;;16.34;54.69;100377.22;1083523;54;19947;-78
2022/07/16 05:52:49;;;;;;;;;;;;;;;16.40;54.53;100370.28;1083653;54;19947;-78
2022/07/16 05:53:52;;;;;;;;;;;;;;;16.42;54.34;100373.66;1083683;54;19981;-78
2022/07/16 05:54:56;;;;;;;;;;;;;;;16.50;54.42;100373.63;1083700;47;19973;-78
2022/07/16 05:56:00;;;;;;;;;;;;;;;16.58;54.33;100371.91;1083256;54;19947;-79
2022/07/16 05:57:01;;;;;;;;;;;;;;;16.59;54.05;100368.19;1083674;47;19954;-78
2022/07/16 05:58:05;;;;;;;;;;;;;;;16.56;54.30;100377.47;1082884;54;19958;-77
2022/07/16 05:59:06;;;;;;;;;;;;;;;16.60;53.82;100378.81;1083340;54;19946;-78
2022/07/16 06:00:11;;;;;;;;;;;;;;;16.67;54.04;100376.25;1083516;54;19981;-78
2022/07/16 06:01:13;;;;;;;;;;;;;;;16.72;53.67;100375.72;1083825;47;19946;-77
2022/07/16 06:02:16;;;;;;;;;;;;;;;16.73;53.79;100378.25;1083639;47;19947;-78
2022/07/16 06:03:20;;;;;;;;;;;;;;;16.77;53.43;100374.16;1083894;54;19950;-78
2022/07/16 06:04:21;;;;;;;;;;;;;;;16.75;53.48;100380.75;1084526;39;20466;-78
2022/07/16 06:05:26;;;;;;;;;;;;;;;16.68;53.42;100376.06;1084738;54;19947;-77
2022/07/16 06:06:27;;;;;;;;;;;;;;;16.71;53.31;100384.84;1083975;54;19951;-77
2022/07/16 06:07:31;;;;;;;;;;;;;;;16.81;53.53;100386.28;1084192;54;19950;-78
2022/07/16 06:08:32;;;;;;;;;;;;;;;16.86;53.01;100385.75;1084010;54;19984;-78